Time;durP1;ratioP1;P1;durP2;ratioP2;P2;SDS_P1;SDS_P2;PMS_P1;PMS_P2;Temp;Humidity;BMP_temperature;BMP_pressure;BME280_temperature;BME280_humidity;BME280_pressure;Samples;Min_cycle;Max_cycle;Signal;HPM_P1;HPM_P2
2021/04/29 00:02:12;;;;;;;11.10;10.10;;;;;;;;;;5004016;28;20243;-43
2021/04/29 00:04:37;;;;;;;11.00;9.97;;;;;;;;;;5005612;28;20218;-43
2021/04/29 00:07:02;;;;;;;12.53;10.97;;;;;;;;;;5000862;28;20273;-43
2021/04/29 00:09:28;;;;;;;10.57;9.67;;;;;;;;;;5007692;28;20213;-43
2021/04/29 00:11:53;;;;;;;10.97;9.80;;;;;;;;;;5008592;28;20221;-43
2021/04/29 00:14:18;;;;;;;10.97;9.90;;;;;;;;;;5004984;28;20284;-43
2021/04/29 00:16:43;;;;;;;11.13;10.23;;;;;;;;;;4994343;28;20170;-43
2021/04/29 00:19:09;;;;;;;9.73;8.80;;;;;;;;;;5007223;28;20179;-43
2021/04/29 00:21:34;;;;;;;11.73;9.10;;;;;;;;;;5007288;28;20177;-43
2021/04/29 00:24:00;;;;;;;10.20;9.40;;;;;;;;;;5008790;28;20165;-44
2021/04/29 00:26:25;;;;;;;10.70;9.50;;;;;;;;;;5009087;28;20242;-43
2021/04/29 00:28:51;;;;;;;10.20;9.40;;;;;;;;;;5006056;28;20531;-44
2021/04/29 00:31:16;;;;;;;10.00;9.10;;;;;;;;;;5008181;28;20201;-44
2021/04/29 00:33:41;;;;;;;10.63;9.63;;;;;;;;;;5008661;28;21176;-44
2021/04/29 00:36:06;;;;;;;9.77;9.05;;;;;;;;;;5006088;28;20303;-43
2021/04/29 00:38:32;;;;;;;10.53;9.63;;;;;;;;;;5007129;28;20193;-43
2021/04/29 00:40:57;;;;;;;10.00;9.20;;;;;;;;;;5006616;28;20244;-43
2021/04/29 00:43:22;;;;;;;9.30;8.60;;;;;;;;;;4995833;28;20400;-43
2021/04/29 00:45:47;;;;;;;10.57;9.70;;;;;;;;;;5007715;28;20606;-43
2021/04/29 00:48:13;;;;;;;9.47;8.77;;;;;;;;;;5006050;28;20193;-42
2021/04/29 00:50:38;;;;;;;11.30;10.20;;;;;;;;;;5007758;28;20185;-43
2021/04/29 00:53:03;;;;;;;10.03;9.03;;;;;;;;;;5004699;28;20179;-43
2021/04/29 00:55:28;;;;;;;10.23;9.27;;;;;;;;;;5007035;28;20288;-44
2021/04/29 00:57:53;;;;;;;9.80;8.60;;;;;;;;;;5000784;28;20221;-43
2021/04/29 01:00:19;;;;;;;9.50;8.70;;;;;;;;;;5002029;28;20717;-44
2021/04/29 01:02:52;;;;;;;8.80;8.10;;;;;;;;;;5007525;28;20240;-43
2021/04/29 01:05:17;;;;;;;10.80;9.10;;;;;;;;;;5007300;28;20166;-44
2021/04/29 01:07:44;;;;;;;9.43;8.73;;;;;;;;;;5006921;28;21049;-44
2021/04/29 01:10:09;;;;;;;9.47;8.37;;;;;;;;;;5005181;28;20190;-44
2021/04/29 01:12:38;;;;;;;9.37;8.57;;;;;;;;;;5001837;28;20699;-44
2021/04/29 01:15:04;;;;;;;9.30;8.60;;;;;;;;;;5006994;28;20679;-44
2021/04/29 01:17:30;;;;;;;11.03;9.07;;;;;;;;;;5007246;28;20592;-44
2021/04/29 01:19:59;;;;;;;9.37;8.67;;;;;;;;;;5003704;28;20174;-44
2021/04/29 01:22:25;;;;;;;10.40;9.37;;;;;;;;;;5007097;28;20169;-44
2021/04/29 01:24:59;;;;;;;10.00;8.03;;;;;;;;;;5003470;28;21259;-43
2021/04/29 01:27:25;;;;;;;9.27;8.40;;;;;;;;;;4992529;28;20180;-44
2021/04/29 01:29:51;;;;;;;9.23;8.33;;;;;;;;;;5007579;28;20628;-44
2021/04/29 01:32:16;;;;;;;8.80;8.10;;;;;;;;;;5006512;28;21285;-44
2021/04/29 01:34:42;;;;;;;8.77;7.97;;;;;;;;;;5003656;28;20288;-44
2021/04/29 01:37:08;;;;;;;8.73;8.03;;;;;;;;;;5002852;28;20175;-44
2021/04/29 01:39:34;;;;;;;9.03;8.30;;;;;;;;;;4998206;28;20189;-45
2021/04/29 01:41:59;;;;;;;8.57;7.83;;;;;;;;;;4996539;28;21172;-44
2021/04/29 01:44:25;;;;;;;8.60;7.70;;;;;;;;;;5007450;28;20203;-44
2021/04/29 01:46:50;;;;;;;9.33;8.63;;;;;;;;;;5007200;28;20235;-45
2021/04/29 01:49:16;;;;;;;9.73;8.80;;;;;;;;;;5006946;28;20706;-44
2021/04/29 01:51:41;;;;;;;9.50;8.70;;;;;;;;;;5005555;28;20260;-44
2021/04/29 01:54:08;;;;;;;9.20;8.40;;;;;;;;;;5007479;28;20731;-44
2021/04/29 01:56:34;;;;;;;9.23;8.40;;;;;;;;;;5001165;28;20174;-44
2021/04/29 01:58:59;;;;;;;9.00;8.10;;;;;;;;;;4999548;28;20588;-44
2021/04/29 02:01:25;;;;;;;10.30;9.32;;;;;;;;;;5002079;28;20654;-45
2021/04/29 02:03:50;;;;;;;10.50;9.60;;;;;;;;;;5003768;28;20640;-44
2021/04/29 02:06:15;;;;;;;8.93;8.23;;;;;;;;;;4999424;28;20670;-44
2021/04/29 02:08:40;;;;;;;9.40;8.60;;;;;;;;;;5000683;28;20182;-43
2021/04/29 02:11:06;;;;;;;9.80;9.00;;;;;;;;;;5005582;28;20200;-43
2021/04/29 02:13:33;;;;;;;9.30;8.40;;;;;;;;;;5006849;28;20521;-43
2021/04/29 02:16:01;;;;;;;8.23;7.53;;;;;;;;;;5006581;28;20520;-43
2021/04/29 02:18:28;;;;;;;9.00;8.10;;;;;;;;;;5005975;28;21026;-43
2021/04/29 02:20:54;;;;;;;9.30;8.50;;;;;;;;;;5006354;28;20632;-44
2021/04/29 02:23:20;;;;;;;9.20;8.30;;;;;;;;;;5001152;28;20629;-44
2021/04/29 02:25:47;;;;;;;10.47;9.50;;;;;;;;;;4999042;28;20185;-43
2021/04/29 02:28:12;;;;;;;10.07;9.20;;;;;;;;;;5007412;28;20597;-43
2021/04/29 02:30:37;;;;;;;9.13;8.40;;;;;;;;;;5007471;28;20703;-44
2021/04/29 02:33:03;;;;;;;10.13;9.13;;;;;;;;;;5010269;28;20188;-43
2021/04/29 02:35:28;;;;;;;9.13;8.20;;;;;;;;;;5009267;28;20263;-44
2021/04/29 02:37:54;;;;;;;8.93;8.20;;;;;;;;;;5009707;28;20196;-44
2021/04/29 02:40:20;;;;;;;8.77;8.07;;;;;;;;;;5008807;28;20239;-44
2021/04/29 02:42:45;;;;;;;9.43;8.63;;;;;;;;;;5010206;28;20176;-44
2021/04/29 02:45:11;;;;;;;10.30;9.30;;;;;;;;;;5007808;28;20696;-43
2021/04/29 02:47:47;;;;;;;9.40;8.50;;;;;;;;;;5010649;28;20590;-44
2021/04/29 02:50:13;;;;;;;9.03;8.33;;;;;;;;;;5009187;28;20600;-43
2021/04/29 02:52:39;;;;;;;10.00;9.10;;;;;;;;;;5008434;28;20603;-44
2021/04/29 02:55:07;;;;;;;9.50;8.70;;;;;;;;;;5006340;28;20637;-44
2021/04/29 02:57:32;;;;;;;9.77;8.93;;;;;;;;;;5005161;28;20675;-44
2021/04/29 02:59:58;;;;;;;10.30;9.40;;;;;;;;;;5007264;28;20605;-44
2021/04/29 03:02:23;;;;;;;9.70;9.00;;;;;;;;;;5007134;28;20205;-44
2021/04/29 03:04:48;;;;;;;9.63;8.83;;;;;;;;;;5009219;28;20265;-43
2021/04/29 03:07:13;;;;;;;9.27;8.57;;;;;;;;;;5007532;28;20297;-42
2021/04/29 03:09:38;;;;;;;10.50;9.60;;;;;;;;;;5003289;28;20224;-43
2021/04/29 03:12:04;;;;;;;11.37;10.37;;;;;;;;;;5008409;28;20224;-44
2021/04/29 03:14:29;;;;;;;9.77;8.87;;;;;;;;;;5009685;28;20731;-44
2021/04/29 03:16:54;;;;;;;10.40;9.40;;;;;;;;;;5009350;28;20477;-45
2021/04/29 03:19:19;;;;;;;9.80;8.90;;;;;;;;;;5003220;28;20651;-44
2021/04/29 03:21:44;;;;;;;11.07;9.97;;;;;;;;;;5005889;28;20203;-44
2021/04/29 03:24:09;;;;;;;9.48;8.63;;;;;;;;;;5007868;28;20170;-43
2021/04/29 03:26:35;;;;;;;9.98;9.07;;;;;;;;;;5007358;28;20181;-44
2021/04/29 03:29:00;;;;;;;10.40;9.50;;;;;;;;;;5008604;28;20276;-44
2021/04/29 03:31:25;;;;;;;10.03;9.23;;;;;;;;;;5008008;28;20219;-44
2021/04/29 03:33:51;;;;;;;11.00;10.10;;;;;;;;;;5007157;28;20170;-44
2021/04/29 03:36:16;;;;;;;9.30;8.50;;;;;;;;;;5008343;28;20189;-44
2021/04/29 03:38:42;;;;;;;9.55;8.75;;;;;;;;;;5009355;28;20628;-44
2021/04/29 03:41:07;;;;;;;10.18;9.27;;;;;;;;;;5007492;28;20211;-44
2021/04/29 03:43:32;;;;;;;10.30;9.40;;;;;;;;;;5001421;28;20178;-44
2021/04/29 03:45:57;;;;;;;10.80;10.00;;;;;;;;;;5006028;28;20330;-44
2021/04/29 03:48:22;;;;;;;10.40;9.40;;;;;;;;;;5000310;28;20268;-44
2021/04/29 03:50:47;;;;;;;10.20;9.30;;;;;;;;;;5005415;28;20674;-44
2021/04/29 03:53:13;;;;;;;9.93;9.00;;;;;;;;;;5005462;28;20201;-44
2021/04/29 03:55:38;;;;;;;11.63;9.65;;;;;;;;;;5000949;28;20205;-44
2021/04/29 03:58:03;;;;;;;10.57;9.77;;;;;;;;;;4996922;28;20236;-43
2021/04/29 04:00:28;;;;;;;11.23;10.33;;;;;;;;;;5002224;28;20186;-43
2021/04/29 04:02:53;;;;;;;9.85;9.05;;;;;;;;;;5003577;28;20648;-44
2021/04/29 04:05:18;;;;;;;11.90;10.73;;;;;;;;;;5000958;28;20189;-44
2021/04/29 04:07:44;;;;;;;11.27;10.17;;;;;;;;;;4992212;28;20180;-44
2021/04/29 04:10:09;;;;;;;11.68;10.50;;;;;;;;;;4996239;28;20258;-44
2021/04/29 04:12:35;;;;;;;11.90;10.90;;;;;;;;;;4997704;28;20602;-44
2021/04/29 04:15:00;;;;;;;11.80;10.77;;;;;;;;;;5001536;28;20204;-44
2021/04/29 04:17:25;;;;;;;10.77;9.97;;;;;;;;;;4999722;28;20188;-44
2021/04/29 04:19:50;;;;;;;11.60;10.55;;;;;;;;;;5000395;28;20251;-44
2021/04/29 04:22:15;;;;;;;11.65;10.45;;;;;;;;;;5007697;28;20192;-45
2021/04/29 04:24:41;;;;;;;11.87;10.77;;;;;;;;;;5006286;28;20170;-44
2021/04/29 04:27:06;;;;;;;11.52;10.38;;;;;;;;;;5006058;28;20174;-44
2021/04/29 04:29:32;;;;;;;11.60;10.70;;;;;;;;;;5004693;28;20265;-44
2021/04/29 04:31:57;;;;;;;11.53;10.53;;;;;;;;;;4998459;28;20532;-44
2021/04/29 04:34:22;;;;;;;12.90;10.97;;;;;;;;;;4997085;28;20232;-44
2021/04/29 04:36:47;;;;;;;12.02;11.00;;;;;;;;;;5003271;28;20635;-43
2021/04/29 04:39:12;;;;;;;14.05;12.65;;;;;;;;;;4999251;28;20695;-42
2021/04/29 04:41:39;;;;;;;13.63;12.13;;;;;;;;;;5000300;28;20292;-43
2021/04/29 04:44:04;;;;;;;12.77;11.67;;;;;;;;;;4991306;28;20170;-43
2021/04/29 04:46:29;;;;;;;12.97;11.77;;;;;;;;;;4989048;28;20612;-43
2021/04/29 04:48:54;;;;;;;13.97;12.77;;;;;;;;;;5005152;28;20197;-44
2021/04/29 04:51:19;;;;;;;13.35;12.13;;;;;;;;;;5004220;28;20385;-44
2021/04/29 04:53:45;;;;;;;13.37;12.07;;;;;;;;;;5005291;28;20173;-45
2021/04/29 04:56:10;;;;;;;12.63;11.53;;;;;;;;;;4989989;28;20707;-43
2021/04/29 04:58:35;;;;;;;13.48;12.38;;;;;;;;;;5000309;28;20361;-43
2021/04/29 05:01:01;;;;;;;13.70;12.40;;;;;;;;;;4999795;28;20181;-43
2021/04/29 05:03:26;;;;;;;14.10;12.80;;;;;;;;;;4992777;28;20181;-43
2021/04/29 05:05:51;;;;;;;13.80;12.70;;;;;;;;;;5004134;28;20211;-43
2021/04/29 05:08:16;;;;;;;16.53;14.30;;;;;;;;;;5000984;28;20174;-43
2021/04/29 05:10:41;;;;;;;13.63;12.43;;;;;;;;;;4997937;28;20251;-44
2021/04/29 05:13:07;;;;;;;15.82;14.13;;;;;;;;;;4993645;28;20280;-43
2021/04/29 05:15:33;;;;;;;15.70;14.10;;;;;;;;;;4985468;28;20292;-43
2021/04/29 05:17:58;;;;;;;17.33;15.27;;;;;;;;;;4991461;28;20691;-43
2021/04/29 05:20:23;;;;;;;19.80;16.63;;;;;;;;;;4986415;28;21360;-43
2021/04/29 05:22:50;;;;;;;17.67;15.97;;;;;;;;;;4993247;28;20186;-44
2021/04/29 05:25:15;;;;;;;16.93;15.40;;;;;;;;;;5002001;28;20188;-44
2021/04/29 05:27:40;;;;;;;16.97;15.37;;;;;;;;;;5002987;28;20584;-44
2021/04/29 05:30:06;;;;;;;16.40;14.90;;;;;;;;;;5001106;28;20687;-45
2021/04/29 05:32:31;;;;;;;17.87;15.97;;;;;;;;;;4980890;28;20671;-44
2021/04/29 05:34:56;;;;;;;19.10;17.30;;;;;;;;;;4987248;28;20503;-43
2021/04/29 05:37:21;;;;;;;17.88;16.17;;;;;;;;;;4998979;28;20830;-44
2021/04/29 05:39:47;;;;;;;19.33;17.33;;;;;;;;;;5000769;28;20442;-44
2021/04/29 05:42:12;;;;;;;19.33;17.53;;;;;;;;;;5003731;28;20251;-44
2021/04/29 05:44:37;;;;;;;18.48;16.70;;;;;;;;;;5002313;28;20269;-44
2021/04/29 05:47:02;;;;;;;17.38;15.75;;;;;;;;;;4999569;28;20205;-43
2021/04/29 05:49:27;;;;;;;18.93;17.13;;;;;;;;;;4999336;28;20177;-45
2021/04/29 05:51:53;;;;;;;18.47;16.87;;;;;;;;;;4991727;28;20166;-43
2021/04/29 05:54:37;;;;;;;;;;;;;;;;;;;;;
2021/04/29 05:57:03;;;;;;;19.60;17.80;;;;;;;;;;5006523;28;20180;-44
2021/04/29 05:59:28;;;;;;;18.83;17.10;;;;;;;;;;5009160;28;20585;-44
2021/04/29 06:01:53;;;;;;;20.93;16.97;;;;;;;;;;5008091;28;20211;-45
2021/04/29 06:04:18;;;;;;;21.00;19.02;;;;;;;;;;5005697;28;20220;-45
2021/04/29 06:06:45;;;;;;;19.97;17.87;;;;;;;;;;5003339;28;20186;-45
2021/04/29 06:09:10;;;;;;;21.50;19.43;;;;;;;;;;4986611;28;20200;-44
2021/04/29 06:11:35;;;;;;;22.10;19.75;;;;;;;;;;5005400;28;21094;-44
2021/04/29 06:14:00;;;;;;;23.20;20.92;;;;;;;;;;5000989;28;20240;-44
2021/04/29 06:16:25;;;;;;;20.70;18.77;;;;;;;;;;4995324;28;20191;-43
2021/04/29 06:18:51;;;;;;;22.05;20.05;;;;;;;;;;5007721;28;20178;-44
2021/04/29 06:21:16;;;;;;;23.87;21.23;;;;;;;;;;4999218;28;20177;-43
2021/04/29 06:23:41;;;;;;;20.90;19.00;;;;;;;;;;5005255;28;20331;-43
2021/04/29 06:26:06;;;;;;;22.65;20.27;;;;;;;;;;5008510;28;20283;-43
2021/04/29 06:28:32;;;;;;;21.43;19.43;;;;;;;;;;5006993;28;20563;-44
2021/04/29 06:30:57;;;;;;;22.50;20.37;;;;;;;;;;4995437;28;20403;-44
2021/04/29 06:33:25;;;;;;;21.33;19.53;;;;;;;;;;4989868;28;20190;-44
2021/04/29 06:35:51;;;;;;;21.33;19.40;;;;;;;;;;5006453;28;20209;-45
2021/04/29 06:38:16;;;;;;;21.43;19.23;;;;;;;;;;5002391;28;20654;-45
2021/04/29 06:40:42;;;;;;;22.00;19.80;;;;;;;;;;5001095;28;20624;-45
2021/04/29 06:43:07;;;;;;;25.43;22.93;;;;;;;;;;4999600;28;20260;-45
2021/04/29 06:45:32;;;;;;;24.70;22.10;;;;;;;;;;5000868;28;20601;-44
2021/04/29 06:47:57;;;;;;;24.03;21.47;;;;;;;;;;5007777;28;20181;-44
2021/04/29 06:50:23;;;;;;;23.73;21.27;;;;;;;;;;5010080;28;20639;-44
2021/04/29 06:52:48;;;;;;;22.70;20.50;;;;;;;;;;4994644;28;20175;-44
2021/04/29 06:55:13;;;;;;;26.93;24.10;;;;;;;;;;4996465;28;20217;-43
2021/04/29 06:57:39;;;;;;;23.07;20.97;;;;;;;;;;5003617;28;20185;-43
2021/04/29 07:00:04;;;;;;;23.17;20.77;;;;;;;;;;5000780;28;20537;-43
2021/04/29 07:02:29;;;;;;;27.03;24.20;;;;;;;;;;4998784;28;20644;-43
2021/04/29 07:04:54;;;;;;;23.90;21.50;;;;;;;;;;4994313;28;20193;-43
2021/04/29 07:07:20;;;;;;;27.08;24.17;;;;;;;;;;5004240;28;20231;-44
2021/04/29 07:09:45;;;;;;;24.43;22.03;;;;;;;;;;4994561;28;20189;-45
2021/04/29 07:12:10;;;;;;;27.00;23.95;;;;;;;;;;4982362;28;20819;-44
2021/04/29 07:14:35;;;;;;;26.63;23.90;;;;;;;;;;4988458;28;20679;-44
2021/04/29 07:17:00;;;;;;;28.63;25.50;;;;;;;;;;5004111;28;20264;-44
2021/04/29 07:19:25;;;;;;;30.60;27.03;;;;;;;;;;5005888;28;20257;-44
2021/04/29 07:21:51;;;;;;;27.83;25.02;;;;;;;;;;5004579;28;20362;-44
2021/04/29 07:24:16;;;;;;;29.15;26.15;;;;;;;;;;5000573;28;20181;-45
2021/04/29 07:26:41;;;;;;;29.33;26.27;;;;;;;;;;5002343;28;20623;-45
2021/04/29 07:29:06;;;;;;;30.83;27.63;;;;;;;;;;5001111;28;20171;-44
2021/04/29 07:31:31;;;;;;;29.67;26.57;;;;;;;;;;5000493;28;20539;-44
2021/04/29 07:33:56;;;;;;;28.90;26.00;;;;;;;;;;5002179;28;20165;-44
2021/04/29 07:36:22;;;;;;;28.70;25.70;;;;;;;;;;5006152;28;20302;-44
2021/04/29 07:38:47;;;;;;;27.97;24.97;;;;;;;;;;5004174;28;20183;-44
2021/04/29 07:41:13;;;;;;;26.70;23.97;;;;;;;;;;5000256;28;20181;-44
2021/04/29 07:43:38;;;;;;;28.80;25.90;;;;;;;;;;5002133;28;20177;-44
2021/04/29 07:46:03;;;;;;;31.48;25.83;;;;;;;;;;5000513;28;20216;-44
2021/04/29 07:48:28;;;;;;;26.13;23.50;;;;;;;;;;5003844;28;20177;-44
2021/04/29 07:50:54;;;;;;;26.40;23.80;;;;;;;;;;5003451;28;20655;-44
2021/04/29 07:53:19;;;;;;;26.53;23.93;;;;;;;;;;5001949;28;20178;-44
2021/04/29 07:55:44;;;;;;;23.97;21.70;;;;;;;;;;4999982;28;20215;-44
2021/04/29 07:58:09;;;;;;;27.87;23.37;;;;;;;;;;5000361;28;20173;-44
2021/04/29 08:00:34;;;;;;;23.15;20.88;;;;;;;;;;5001782;28;20173;-44
2021/04/29 08:03:00;;;;;;;21.90;19.73;;;;;;;;;;5004840;28;20237;-44
2021/04/29 08:05:25;;;;;;;25.13;22.65;;;;;;;;;;5001550;28;20645;-44
2021/04/29 08:07:51;;;;;;;23.33;20.67;;;;;;;;;;4997875;28;20185;-44
2021/04/29 08:10:16;;;;;;;23.43;20.43;;;;;;;;;;4998502;28;20197;-44
2021/04/29 08:12:41;;;;;;;22.30;20.20;;;;;;;;;;4998560;28;20729;-44
2021/04/29 08:15:07;;;;;;;20.97;18.97;;;;;;;;;;5004399;28;20710;-43
2021/04/29 08:17:32;;;;;;;21.83;19.83;;;;;;;;;;5004757;28;20181;-44
2021/04/29 08:19:57;;;;;;;21.77;19.60;;;;;;;;;;4999547;28;20528;-44
2021/04/29 08:22:26;;;;;;;21.30;19.15;;;;;;;;;;4999859;28;20184;-44
2021/04/29 08:24:51;;;;;;;22.07;19.73;;;;;;;;;;4998972;28;20197;-44
2021/04/29 08:27:17;;;;;;;21.07;19.17;;;;;;;;;;5001153;28;20585;-44
2021/04/29 08:29:42;;;;;;;21.07;19.07;;;;;;;;;;5002814;28;20541;-44
2021/04/29 08:32:07;;;;;;;21.27;19.27;;;;;;;;;;5004766;28;20622;-44
2021/04/29 08:34:32;;;;;;;21.77;19.80;;;;;;;;;;5000107;28;20738;-44
2021/04/29 08:36:57;;;;;;;23.80;21.30;;;;;;;;;;5001128;28;20183;-45
2021/04/29 08:39:23;;;;;;;25.13;22.70;;;;;;;;;;5004818;28;20325;-44
2021/04/29 08:41:48;;;;;;;23.98;21.63;;;;;;;;;;5000486;28;20187;-45
2021/04/29 08:44:13;;;;;;;22.98;20.92;;;;;;;;;;4999198;28;20266;-45
2021/04/29 08:46:38;;;;;;;23.08;20.80;;;;;;;;;;5001130;28;20627;-44
2021/04/29 08:49:04;;;;;;;22.00;19.90;;;;;;;;;;4999443;28;20203;-44
2021/04/29 08:51:29;;;;;;;22.53;20.47;;;;;;;;;;5004452;28;20175;-44
2021/04/29 08:53:55;;;;;;;24.95;22.52;;;;;;;;;;5002187;28;20238;-44
2021/04/29 08:56:25;;;;;;;21.60;19.53;;;;;;;;;;5000725;28;20593;-44
2021/04/29 08:58:50;;;;;;;20.40;18.50;;;;;;;;;;4999314;28;20544;-44
2021/04/29 09:01:16;;;;;;;21.97;19.80;;;;;;;;;;5000942;28;20588;-44
2021/04/29 09:03:41;;;;;;;19.73;17.93;;;;;;;;;;5003619;28;20181;-44
2021/04/29 09:06:07;;;;;;;21.20;19.13;;;;;;;;;;5000845;28;20906;-45
2021/04/29 09:08:33;;;;;;;20.77;18.87;;;;;;;;;;5001005;28;20181;-45
2021/04/29 09:11:12;;;;;;;20.37;18.47;;;;;;;;;;4998580;28;20243;-45
2021/04/29 09:13:39;;;;;;;19.33;17.70;;;;;;;;;;4984216;28;20816;-44
2021/04/29 09:16:05;;;;;;;18.30;16.60;;;;;;;;;;4984653;28;20636;-44
2021/04/29 09:18:31;;;;;;;20.87;18.97;;;;;;;;;;4993686;28;21498;-44
2021/04/29 09:20:57;;;;;;;21.70;19.70;;;;;;;;;;4998805;28;20626;-43
2021/04/29 09:23:23;;;;;;;20.03;18.33;;;;;;;;;;4999023;28;20174;-44
2021/04/29 09:25:55;;;;;;;19.43;17.63;;;;;;;;;;5001888;28;20607;-45
2021/04/29 09:28:31;;;;;;;17.60;16.00;;;;;;;;;;5004139;28;20630;-46
2021/04/29 09:31:03;;;;;;;10.93;9.93;;;;;;;;;;5001424;28;20615;-43
2021/04/29 09:33:30;;;;;;;8.70;7.97;;;;;;;;;;5005001;28;20600;-45
2021/04/29 09:35:55;;;;;;;7.80;7.30;;;;;;;;;;5008622;28;21109;-44
2021/04/29 09:38:29;;;;;;;6.63;6.03;;;;;;;;;;5010652;28;21015;-44
2021/04/29 09:40:54;;;;;;;6.30;5.80;;;;;;;;;;5006381;28;20181;-45
2021/04/29 09:43:20;;;;;;;6.63;6.13;;;;;;;;;;5005326;28;20589;-44
2021/04/29 09:45:45;;;;;;;6.70;6.10;;;;;;;;;;5004959;28;20219;-45
2021/04/29 09:48:13;;;;;;;9.13;6.82;;;;;;;;;;5008876;28;20179;-46
2021/04/29 09:50:39;;;;;;;6.70;6.20;;;;;;;;;;5010228;28;20218;-46
2021/04/29 09:53:09;;;;;;;6.40;6.00;;;;;;;;;;5005373;28;20761;-45
2021/04/29 09:55:36;;;;;;;7.10;6.60;;;;;;;;;;5006353;28;20643;-45
2021/04/29 09:58:23;;;;;;;7.10;6.60;;;;;;;;;;5005199;28;21580;-45
2021/04/29 10:00:49;;;;;;;7.70;7.20;;;;;;;;;;5008016;28;20618;-45
2021/04/29 10:03:15;;;;;;;8.20;7.60;;;;;;;;;;5010278;28;20576;-45
2021/04/29 10:05:41;;;;;;;9.40;8.60;;;;;;;;;;5006352;28;20958;-44
2021/04/29 10:08:13;;;;;;;9.73;8.93;;;;;;;;;;5004673;28;20188;-45
2021/04/29 10:10:39;;;;;;;9.27;8.47;;;;;;;;;;5008485;28;20246;-45
2021/04/29 10:13:05;;;;;;;9.80;8.80;;;;;;;;;;5007276;28;20772;-45
2021/04/29 10:15:31;;;;;;;10.00;9.20;;;;;;;;;;5006320;28;20651;-44
2021/04/29 10:17:56;;;;;;;10.57;9.47;;;;;;;;;;5004410;28;20559;-44
2021/04/29 10:20:21;;;;;;;9.90;9.10;;;;;;;;;;5004774;28;20319;-45
2021/04/29 10:22:47;;;;;;;10.43;9.63;;;;;;;;;;5006973;28;20176;-45
2021/04/29 10:25:12;;;;;;;9.50;8.60;;;;;;;;;;5009603;28;20538;-45
2021/04/29 10:27:42;;;;;;;9.27;8.57;;;;;;;;;;5010123;28;20186;-45
2021/04/29 10:30:09;;;;;;;8.70;7.93;;;;;;;;;;5004754;28;20532;-50
2021/04/29 10:32:35;;;;;;;7.60;7.00;;;;;;;;;;5006412;28;20579;-45
2021/04/29 10:35:00;;;;;;;7.00;6.50;;;;;;;;;;5005911;28;20638;-44
2021/04/29 10:37:27;;;;;;;6.50;6.00;;;;;;;;;;5010219;28;20595;-44
2021/04/29 10:39:59;;;;;;;5.37;4.97;;;;;;;;;;5007918;28;20716;-44
2021/04/29 10:42:28;;;;;;;5.20;4.27;;;;;;;;;;5003401;28;20575;-45
2021/04/29 10:44:56;;;;;;;3.67;3.47;;;;;;;;;;5001118;28;20557;-45
2021/04/29 10:47:21;;;;;;;5.00;3.97;;;;;;;;;;5001093;28;20607;-45
2021/04/29 10:49:47;;;;;;;5.30;4.80;;;;;;;;;;5001280;28;20610;-45
2021/04/29 10:52:12;;;;;;;5.03;4.63;;;;;;;;;;5005169;28;20708;-44
2021/04/29 10:54:47;;;;;;;4.43;4.03;;;;;;;;;;5006280;28;20204;-44
2021/04/29 10:57:13;;;;;;;5.40;4.87;;;;;;;;;;5003350;28;20184;-46
2021/04/29 10:59:44;;;;;;;4.83;4.53;;;;;;;;;;5002951;28;20618;-45
2021/04/29 11:02:31;;;;;;;5.27;4.50;;;;;;;;;;5000798;28;20693;-46
2021/04/29 11:04:57;;;;;;;4.40;4.10;;;;;;;;;;5000391;28;20660;-46
2021/04/29 11:07:23;;;;;;;4.70;4.40;;;;;;;;;;5006681;28;20610;-46
2021/04/29 11:10:11;;;;;;;5.73;5.20;;;;;;;;;;5004246;28;20213;-45
2021/04/29 11:12:40;;;;;;;5.13;4.80;;;;;;;;;;5002527;28;20654;-45
2021/04/29 11:15:06;;;;;;;5.40;5.00;;;;;;;;;;5000652;28;20636;-45
2021/04/29 11:17:31;;;;;;;5.50;5.10;;;;;;;;;;5002781;28;20608;-45
2021/04/29 11:19:57;;;;;;;5.00;4.55;;;;;;;;;;5000693;28;20204;-45
2021/04/29 11:22:34;;;;;;;4.53;4.23;;;;;;;;;;5006101;28;20180;-45
2021/04/29 11:25:00;;;;;;;5.33;4.93;;;;;;;;;;5003623;28;20197;-44
2021/04/29 11:27:27;;;;;;;5.43;5.03;;;;;;;;;;5000746;28;20587;-46
2021/04/29 11:29:58;;;;;;;5.93;5.43;;;;;;;;;;5000708;28;20716;-45
2021/04/29 11:32:23;;;;;;;5.73;5.33;;;;;;;;;;5000426;28;20647;-45
2021/04/29 11:34:49;;;;;;;6.63;4.97;;;;;;;;;;5003732;28;20666;-45
2021/04/29 11:37:14;;;;;;;7.93;4.67;;;;;;;;;;5005963;28;20181;-45
2021/04/29 11:39:40;;;;;;;4.90;4.40;;;;;;;;;;5003675;28;20169;-45
2021/04/29 11:42:08;;;;;;;4.37;4.07;;;;;;;;;;5000461;28;20623;-45
2021/04/29 11:44:34;;;;;;;4.63;4.23;;;;;;;;;;5002199;28;20600;-46
2021/04/29 11:46:59;;;;;;;4.70;4.30;;;;;;;;;;5000279;28;20641;-46
2021/04/29 11:49:24;;;;;;;4.53;3.90;;;;;;;;;;5005880;28;20236;-45
2021/04/29 11:51:50;;;;;;;4.28;3.97;;;;;;;;;;5003644;28;20193;-45
2021/04/29 11:54:17;;;;;;;4.80;4.40;;;;;;;;;;5003443;28;20174;-44
2021/04/29 11:56:46;;;;;;;4.20;3.90;;;;;;;;;;5000084;28;20204;-44
2021/04/29 11:59:12;;;;;;;4.50;4.03;;;;;;;;;;5000080;28;20604;-46
2021/04/29 12:01:38;;;;;;;4.37;4.07;;;;;;;;;;5002008;28;20695;-45
2021/04/29 12:04:13;;;;;;;4.27;3.87;;;;;;;;;;5005621;28;20322;-45
2021/04/29 12:06:48;;;;;;;6.37;4.10;;;;;;;;;;5001548;28;20184;-45
2021/04/29 12:09:13;;;;;;;5.27;4.30;;;;;;;;;;4997463;28;21019;-45
2021/04/29 12:11:38;;;;;;;3.90;3.70;;;;;;;;;;5000421;28;20675;-46
2021/04/29 12:14:04;;;;;;;4.00;3.73;;;;;;;;;;5002671;28;20612;-46
2021/04/29 12:16:29;;;;;;;4.07;3.88;;;;;;;;;;4992485;28;20237;-46
2021/04/29 12:18:56;;;;;;;4.17;3.80;;;;;;;;;;4983363;28;20186;-46
2021/04/29 12:21:21;;;;;;;4.43;4.07;;;;;;;;;;4996550;28;20557;-45
2021/04/29 12:23:54;;;;;;;4.20;3.80;;;;;;;;;;4999777;28;20662;-45
2021/04/29 12:26:27;;;;;;;3.93;3.63;;;;;;;;;;4999812;28;20580;-45
2021/04/29 12:28:58;;;;;;;5.40;5.00;;;;;;;;;;5003111;28;21179;-46
2021/04/29 12:31:23;;;;;;;4.23;3.90;;;;;;;;;;4994890;28;20602;-45
2021/04/29 12:33:51;;;;;;;4.97;4.57;;;;;;;;;;4993502;28;20612;-45
2021/04/29 12:36:17;;;;;;;3.93;3.73;;;;;;;;;;4992768;28;20769;-45
2021/04/29 12:38:42;;;;;;;5.10;4.70;;;;;;;;;;4981487;28;20712;-45
2021/04/29 12:41:07;;;;;;;5.80;5.40;;;;;;;;;;4989909;28;20178;-45
2021/04/29 12:43:34;;;;;;;5.93;5.53;;;;;;;;;;5000872;28;20778;-45
2021/04/29 12:46:01;;;;;;;9.10;5.03;;;;;;;;;;4991535;28;20177;-45
2021/04/29 12:48:31;;;;;;;5.13;4.73;;;;;;;;;;5002029;28;20671;-45
2021/04/29 12:51:02;;;;;;;4.63;4.33;;;;;;;;;;4997432;28;20789;-45
2021/04/29 12:53:27;;;;;;;5.27;4.87;;;;;;;;;;4998499;28;20696;-45
2021/04/29 12:55:52;;;;;;;5.33;4.93;;;;;;;;;;4998323;28;20754;-46
2021/04/29 12:58:23;;;;;;;5.13;4.73;;;;;;;;;;5003346;28;20184;-46
2021/04/29 13:00:49;;;;;;;4.93;4.57;;;;;;;;;;4994030;28;20204;-45
2021/04/29 13:03:14;;;;;;;5.70;4.90;;;;;;;;;;4985614;28;20597;-45
2021/04/29 13:05:39;;;;;;;4.70;4.40;;;;;;;;;;4991748;28;20709;-46
2021/04/29 13:08:04;;;;;;;4.47;4.17;;;;;;;;;;4999907;28;20206;-45
2021/04/29 13:10:29;;;;;;;5.80;4.40;;;;;;;;;;4996901;28;20236;-45
2021/04/29 13:12:56;;;;;;;4.20;3.83;;;;;;;;;;4996811;28;20225;-44
2021/04/29 13:15:21;;;;;;;3.60;3.40;;;;;;;;;;4999019;28;20252;-45
2021/04/29 13:17:47;;;;;;;3.93;3.47;;;;;;;;;;4989901;28;21079;-45
2021/04/29 13:20:13;;;;;;;3.70;3.40;;;;;;;;;;5000046;28;20291;-45
2021/04/29 13:22:41;;;;;;;3.73;3.43;;;;;;;;;;4995757;28;20183;-45
2021/04/29 13:25:08;;;;;;;3.47;3.27;;;;;;;;;;5001024;28;20628;-45
2021/04/29 13:27:33;;;;;;;3.37;3.10;;;;;;;;;;5002175;28;20636;-46
2021/04/29 13:29:58;;;;;;;3.70;3.50;;;;;;;;;;4998822;28;20605;-45
2021/04/29 13:32:24;;;;;;;4.60;4.27;;;;;;;;;;4994771;28;20690;-45
2021/04/29 13:34:49;;;;;;;3.63;3.33;;;;;;;;;;4996800;28;20208;-46
2021/04/29 13:37:15;;;;;;;4.27;3.97;;;;;;;;;;5000080;28;20282;-45
2021/04/29 13:39:40;;;;;;;3.87;3.60;;;;;;;;;;5000276;28;20184;-45
2021/04/29 13:42:05;;;;;;;4.40;3.93;;;;;;;;;;4995938;28;20177;-46
2021/04/29 13:44:30;;;;;;;6.47;4.00;;;;;;;;;;4996987;28;20254;-46
2021/04/29 13:46:56;;;;;;;3.43;3.13;;;;;;;;;;4994137;28;20745;-47
2021/04/29 13:49:21;;;;;;;3.83;3.53;;;;;;;;;;4991378;28;20534;-45
2021/04/29 13:51:46;;;;;;;4.07;3.77;;;;;;;;;;4998294;28;20258;-45
2021/04/29 13:54:11;;;;;;;5.67;3.40;;;;;;;;;;5000249;28;20555;-46
2021/04/29 13:56:36;;;;;;;4.00;3.60;;;;;;;;;;5000336;28;20671;-46
2021/04/29 13:59:02;;;;;;;3.83;3.55;;;;;;;;;;4996535;28;20180;-45
2021/04/29 14:01:27;;;;;;;3.97;3.27;;;;;;;;;;4995125;28;20426;-46
2021/04/29 14:03:52;;;;;;;3.20;3.00;;;;;;;;;;4997108;28;20191;-45
2021/04/29 14:06:18;;;;;;;4.10;3.60;;;;;;;;;;4999781;28;20618;-45
2021/04/29 14:08:43;;;;;;;3.93;3.63;;;;;;;;;;5000797;28;20187;-46
2021/04/29 14:11:09;;;;;;;5.73;3.33;;;;;;;;;;4994618;28;20623;-46
2021/04/29 14:13:34;;;;;;;3.40;3.20;;;;;;;;;;4997385;28;20231;-45
2021/04/29 14:15:59;;;;;;;3.63;3.33;;;;;;;;;;4999292;28;20210;-44
2021/04/29 14:18:24;;;;;;;3.27;3.07;;;;;;;;;;5002441;28;20201;-44
2021/04/29 14:20:50;;;;;;;3.73;3.43;;;;;;;;;;5003226;28;20869;-45
2021/04/29 14:23:15;;;;;;;4.53;2.80;;;;;;;;;;5005487;28;20176;-44
2021/04/29 14:25:40;;;;;;;2.63;2.43;;;;;;;;;;5003538;28;20180;-46